Main page
METAR-TAF:

METAR-TAF

Airports :

Kuwait International Airport

Kuwait City, Kuwait

latitude: 29-13N, longitude: 047-59E, elevation: 55 m

Current weather observation

The report was made 22 minutes ago, at 23:00 UTC
Wind 3 kt from the North
Temperature 8°C
Humidity 76%
Pressure 1020 hPa
Visibility 10 km or more
no clouds below 1500 m and no cumulonimbus

METAR: OKBK 212300Z 35003KT CAVOK 08/04 Q1020 NOSIG

Time: 02:22 (23:22 UTC)

Forecast

The report was made 6 hours and 37 minutes ago, at 16:45 UTC
Forecast valid from 21 at 18 UTC to 22 at 24 UTC
Wind 8 kt from the North
Visibility: 7000 m
Temporary
from 21 at 18 UTC to 22 at 06 UTC
Wind 3 kt from variable directions

TAF: OKBK 211645Z 2118/2224 35008KT 7000 NSC TEMPO 2118/2206 VRB03KT

Weather observations and forecasts of more than 4000 airports (METAR and TAF reports).

The available stations are represented by yellow and red dots on the map.

Hover mouse over dot to see the name of the station.

Then click to see weather observations and forecasts.

To change the map : click on the green buttons with a black cross to zoom in, on the green button with a dash to zoom out, or on the green arrows for adjacent maps.


METAR-TAF: